Time;durP1;ratioP1;P1;durP2;ratioP2;P2;SDS_P1;SDS_P2;PMS_P1;PMS_P2;Temp;Humidity;BMP_temperature;BMP_pressure;BME280_temperature;BME280_humidity;BME280_pressure;Samples;Min_cycle;Max_cycle;Signal;HPM_P1;HPM_P2
2023/12/25 00:01:57;;;;;;;;;0.00;0.00;;;;;17.13;100.00;101293.13;5038886;28;47073;-82
2023/12/25 00:04:22;;;;;;;;;0.00;0.00;;;;;17.16;100.00;101298.22;5038065;28;63069;-82
2023/12/25 00:06:47;;;;;;;;;0.00;0.00;;;;;17.21;100.00;101301.50;5056082;28;65271;-82
2023/12/25 00:09:13;;;;;;;;;0.00;0.00;;;;;17.19;100.00;101293.69;5056098;28;45353;-82
2023/12/25 00:11:38;;;;;;;;;0.00;0.00;;;;;17.14;100.00;101300.94;5055150;28;70591;-82
2023/12/25 00:14:03;;;;;;;;;0.00;0.00;;;;;17.20;100.00;101284.88;5038288;28;45575;-82
2023/12/25 00:16:28;;;;;;;;;0.00;0.00;;;;;17.21;100.00;101290.97;5056042;28;60066;-82
2023/12/25 00:18:55;;;;;;;;;0.00;0.00;;;;;17.22;100.00;101288.28;5055480;28;66828;-82
2023/12/25 00:21:20;;;;;;;;;0.00;0.00;;;;;17.14;100.00;101292.19;5056122;28;46440;-82
2023/12/25 00:23:46;;;;;;;;;0.00;0.00;;;;;17.03;100.00;101283.03;5055992;28;45353;-82
2023/12/25 00:26:11;;;;;;;;;0.00;0.00;;;;;17.10;100.00;101280.13;5037518;28;66598;-81
2023/12/25 00:28:36;;;;;;;;;0.00;0.00;;;;;17.12;100.00;101273.00;5055881;28;57770;-82
2023/12/25 00:31:02;;;;;;;;;0.00;0.00;;;;;17.00;100.00;101277.91;5055277;28;69349;-82
2023/12/25 00:33:27;;;;;;;;;0.00;0.00;;;;;17.07;100.00;101278.50;5038141;28;45470;-82
2023/12/25 00:35:52;;;;;;;;;0.00;0.00;;;;;17.14;100.00;101279.03;5037341;28;68573;-82
2023/12/25 00:38:18;;;;;;;;;0.00;0.00;;;;;17.19;100.00;101270.00;5054847;28;68446;-82
2023/12/25 00:40:43;;;;;;;;;0.00;0.00;;;;;17.18;100.00;101278.84;5055448;28;56284;-82
2023/12/25 00:43:08;;;;;;;;;0.00;0.00;;;;;17.20;100.00;101276.13;5020375;28;73003;-82
2023/12/25 00:45:34;;;;;;;;;0.00;0.00;;;;;17.21;100.00;101272.56;5037077;28;62127;-82
2023/12/25 00:47:59;;;;;;;;;0.00;0.00;;;;;17.19;100.00;101269.16;5052287;28;70983;-82
2023/12/25 00:50:24;;;;;;;;;0.00;0.00;;;;;17.11;100.00;101269.53;5055058;28;67198;-82
2023/12/25 00:52:50;;;;;;;;;0.00;0.00;;;;;17.16;100.00;101266.66;5036698;28;64168;-82
2023/12/25 00:55:15;;;;;;;;;0.00;0.00;;;;;17.16;100.00;101264.03;5054979;28;69248;-82
2023/12/25 00:57:40;;;;;;;;;0.00;0.00;;;;;16.98;100.00;101274.50;5037396;28;56114;-81
2023/12/25 01:00:06;;;;;;;;;0.00;0.00;;;;;17.02;100.00;101265.53;5055248;28;58877;-81
2023/12/25 01:02:31;;;;;;;;;0.00;0.00;;;;;16.98;100.00;101276.31;5055595;28;45403;-81
2023/12/25 01:04:57;;;;;;;;;0.00;0.00;;;;;17.07;100.00;101282.88;5055003;28;68494;-82
2023/12/25 01:07:22;;;;;;;;;0.00;0.00;;;;;16.94;100.00;101288.75;5054315;28;71423;-82
2023/12/25 01:09:47;;;;;;;;;0.00;0.00;;;;;16.97;100.00;101285.94;5055476;28;46214;-82
2023/12/25 01:12:13;;;;;;;;;0.00;0.00;;;;;17.10;100.00;101285.38;5036417;28;71333;-83
2023/12/25 01:14:42;;;;;;;;;0.00;0.00;;;;;17.07;100.00;101286.38;5036758;28;69112;-82
2023/12/25 01:17:07;;;;;;;;;0.00;0.00;;;;;17.05;100.00;101274.22;5055856;28;45293;-82
2023/12/25 01:19:33;;;;;;;;;0.00;0.00;;;;;17.01;100.00;101269.13;5036552;28;75915;-82
2023/12/25 01:21:58;;;;;;;;;0.00;0.00;;;;;17.07;100.00;101273.22;5054120;28;71411;-82
2023/12/25 01:24:23;;;;;;;;;0.00;0.00;;;;;17.08;100.00;101272.28;5055903;28;65915;-82
2023/12/25 01:26:49;;;;;;;;;0.00;0.00;;;;;17.08;100.00;101268.81;5040381;28;66573;-82
2023/12/25 01:29:14;;;;;;;;;0.00;0.00;;;;;17.13;100.00;101264.19;5040920;28;45961;-82
2023/12/25 01:31:40;;;;;;;;;0.00;0.00;;;;;17.08;100.00;101260.94;5040005;28;74378;-82
2023/12/25 01:34:05;;;;;;;;;0.00;0.00;;;;;17.10;100.00;101262.53;5040498;28;45401;-82
2023/12/25 01:36:32;;;;;;;;;0.00;0.00;;;;;17.17;100.00;101253.44;5039930;28;66571;-82
2023/12/25 01:38:57;;;;;;;;;0.00;0.00;;;;;17.08;100.00;101248.63;5059109;28;46603;-82
2023/12/25 01:41:24;;;;;;;;;0.00;0.00;;;;;17.13;100.00;101245.78;5039598;28;74087;-82
2023/12/25 01:43:49;;;;;;;;;0.00;0.00;;;;;17.08;100.00;101258.28;5040946;28;45510;-82
2023/12/25 01:46:14;;;;;;;;;0.00;0.00;;;;;17.06;100.00;101247.84;5039890;28;69014;-83
2023/12/25 01:48:41;;;;;;;;;0.00;0.00;;;;;16.93;100.00;101244.09;5039553;28;76420;-82
2023/12/25 01:51:06;;;;;;;;;0.00;0.00;;;;;16.92;100.00;101232.75;5040592;28;45349;-81
2023/12/25 01:53:31;;;;;;;;;0.00;0.00;;;;;16.93;100.00;101242.31;5058415;28;53005;-81
2023/12/25 01:55:56;;;;;;;;;0.00;0.00;;;;;17.00;100.00;101235.00;5023220;28;69913;-82
2023/12/25 01:58:22;;;;;;;;;0.00;0.00;;;;;16.90;100.00;101225.84;5039832;28;64357;-81
2023/12/25 02:00:47;;;;;;;;;0.00;0.00;;;;;16.78;100.00;101235.97;5039506;28;73043;-81
2023/12/25 02:03:12;;;;;;;;;0.00;0.00;;;;;16.85;100.00;101227.84;5057933;28;62315;-83
2023/12/25 02:05:38;;;;;;;;;0.00;0.00;;;;;16.97;100.00;101229.88;5039349;28;68189;-82
2023/12/25 02:08:03;;;;;;;;;0.00;0.00;;;;;16.88;100.00;101239.03;5039352;28;66235;-82
2023/12/25 02:10:30;;;;;;;;;0.00;0.00;;;;;16.94;100.00;101253.72;5040442;28;46007;-82
2023/12/25 02:12:55;;;;;;;;;0.00;0.00;;;;;16.96;100.00;101257.13;5040580;28;45453;-82
2023/12/25 02:15:21;;;;;;;;;0.00;0.00;;;;;17.01;100.00;101253.34;5040420;28;45347;-82
2023/12/25 02:17:46;;;;;;;;;0.00;0.00;;;;;16.97;100.00;101254.38;5039757;28;60258;-82
2023/12/25 02:20:13;;;;;;;;;0.00;0.00;;;;;16.97;100.00;101251.75;5056929;28;70289;-83
2023/12/25 02:22:38;;;;;;;;;0.00;0.00;;;;;16.94;100.00;101257.19;5039535;28;61264;-81
2023/12/25 02:25:09;;;;;;;;;0.00;0.00;;;;;17.03;100.00;101258.50;5039901;28;59382;-82
2023/12/25 02:27:35;;;;;;;;;0.00;0.00;;;;;16.99;100.00;101249.06;5040092;28;46265;-82
2023/12/25 02:30:00;;;;;;;;;0.00;0.00;;;;;16.90;100.00;101255.63;5039214;28;73315;-81
2023/12/25 02:32:28;;;;;;;;;0.00;0.00;;;;;17.01;100.00;101247.22;5056019;28;63694;-82
2023/12/25 02:34:53;;;;;;;;;0.00;0.00;;;;;17.09;100.00;101260.03;5057801;28;45453;-83
2023/12/25 02:37:19;;;;;;;;;0.00;0.00;;;;;17.11;100.00;101260.78;5039027;28;73729;-82
2023/12/25 02:39:44;;;;;;;;;0.00;0.00;;;;;17.07;100.00;101270.59;5040097;28;45430;-82
2023/12/25 02:42:09;;;;;;;;;0.00;0.00;;;;;17.10;100.00;101264.34;5057964;28;45564;-83
2023/12/25 02:44:35;;;;;;;;;0.00;0.00;;;;;17.04;100.00;101270.75;5039518;28;48893;-82
2023/12/25 02:47:00;;;;;;;;;0.00;0.00;;;;;17.06;100.00;101284.66;5056298;28;74328;-82
2023/12/25 02:49:25;;;;;;;;;0.00;0.00;;;;;17.07;100.00;101281.13;5057442;28;54404;-82
2023/12/25 02:51:50;;;;;;;;;0.00;0.00;;;;;17.10;100.00;101280.97;5056894;28;67834;-82
2023/12/25 02:54:16;;;;;;;;;0.00;0.00;;;;;17.12;100.00;101279.09;5039391;28;51449;-82
2023/12/25 02:56:41;;;;;;;;;0.00;0.00;;;;;17.11;100.00;101277.41;5057744;28;45404;-82
2023/12/25 02:59:07;;;;;;;;;0.00;0.00;;;;;17.14;100.00;101279.91;5021992;28;71864;-82
2023/12/25 03:01:32;;;;;;;;;0.00;0.00;;;;;17.16;100.00;101272.78;5038943;28;51664;-82
2023/12/25 03:03:57;;;;;;;;;0.00;0.00;;;;;17.16;100.00;101270.16;5056934;28;68956;-82
2023/12/25 03:06:23;;;;;;;;;0.00;0.00;;;;;17.21;100.00;101267.31;5039566;28;45319;-82
2023/12/25 03:08:48;;;;;;;;;0.00;0.00;;;;;17.19;100.00;101261.25;5057668;28;45478;-82
2023/12/25 03:11:13;;;;;;;;;0.00;0.00;;;;;17.01;100.00;101282.28;5038442;28;68660;-81
2023/12/25 03:13:39;;;;;;;;;0.00;0.00;;;;;17.03;100.00;101266.41;5056919;28;62678;-82
2023/12/25 03:16:05;;;;;;;;;0.00;0.00;;;;;17.09;100.00;101266.13;5038918;28;45540;-82
2023/12/25 03:18:31;;;;;;;;;0.00;0.00;;;;;17.06;100.00;101263.63;5056108;28;45601;-82
2023/12/25 03:20:56;;;;;;;;;0.00;0.00;;;;;17.12;100.00;101265.09;5056399;28;45396;-82
2023/12/25 03:23:21;;;;;;;;;0.00;0.00;;;;;17.00;100.00;101259.50;5021859;28;67251;-82
2023/12/25 03:25:47;;;;;;;;;0.00;0.00;;;;;17.03;100.00;101264.63;5056235;28;75553;-81
2023/12/25 03:28:12;;;;;;;;;0.00;0.00;;;;;17.07;100.00;101259.22;5038311;28;73216;-81
2023/12/25 03:30:37;;;;;;;;;0.00;0.00;;;;;17.03;100.00;101261.13;5056046;28;66644;-82
2023/12/25 03:33:03;;;;;;;;;0.00;0.00;;;;;16.95;100.00;101260.66;5021618;28;70416;-81
2023/12/25 03:35:28;;;;;;;;;0.00;0.00;;;;;16.95;100.00;101264.13;5038931;28;47073;-82
2023/12/25 03:37:53;;;;;;;;;0.00;0.00;;;;;16.92;100.00;101259.03;5039136;28;45326;-82
2023/12/25 03:40:19;;;;;;;;;0.00;0.00;;;;;17.05;100.00;101253.16;5056224;28;69348;-82
2023/12/25 03:42:44;;;;;;;;;0.00;0.00;;;;;17.02;100.00;101264.69;5056159;28;59475;-82
2023/12/25 03:45:09;;;;;;;;;0.00;0.00;;;;;16.97;100.00;101257.00;5055855;28;63222;-81
2023/12/25 03:47:35;;;;;;;;;0.00;0.00;;;;;16.97;100.00;101271.94;5037092;28;73270;-82
2023/12/25 03:50:00;;;;;;;;;0.00;0.00;;;;;17.05;100.00;101251.41;5021410;28;66489;-82
2023/12/25 03:52:25;;;;;;;;;0.00;0.00;;;;;17.08;100.00;101267.03;5056154;28;69342;-81
2023/12/25 03:54:51;;;;;;;;;0.00;0.00;;;;;17.11;100.00;101256.38;5038443;28;76002;-82
2023/12/25 03:57:16;;;;;;;;;0.00;0.00;;;;;17.04;100.00;101252.34;5037640;28;71759;-82
2023/12/25 03:59:41;;;;;;;;;0.00;0.00;;;;;17.11;100.00;101258.16;5038705;28;45320;-81
2023/12/25 04:02:07;;;;;;;;;0.00;0.00;;;;;17.13;100.00;101258.94;5056860;28;45290;-82
2023/12/25 04:04:32;;;;;;;;;0.00;0.00;;;;;16.97;100.00;101274.59;5037763;28;65869;-82
2023/12/25 04:06:57;;;;;;;;;0.00;0.00;;;;;17.08;100.00;101259.13;5055772;28;70886;-82
2023/12/25 04:09:23;;;;;;;;;0.00;0.00;;;;;16.86;100.00;101250.56;5055617;28;67751;-81
2023/12/25 04:11:48;;;;;;;;;0.00;0.00;;;;;16.98;100.00;101244.75;5056795;28;45399;-83
2023/12/25 04:14:13;;;;;;;;;0.00;0.00;;;;;17.00;100.00;101235.00;5037189;28;72301;-82
2023/12/25 04:16:39;;;;;;;;;0.00;0.00;;;;;16.85;100.00;101230.47;5037644;28;70239;-82
2023/12/25 04:19:04;;;;;;;;;0.00;0.00;;;;;16.88;100.00;101241.69;5056804;28;45340;-82
2023/12/25 04:21:33;;;;;;;;;0.00;0.00;;;;;16.98;100.00;101235.06;5037420;28;70219;-82
2023/12/25 04:24:00;;;;;;;;;1.00;0.00;;;;;16.93;100.00;101236.22;5039253;28;46588;-82
2023/12/25 04:26:25;;;;;;;;;0.00;0.00;;;;;16.89;100.00;101225.00;5021815;28;47090;-82
2023/12/25 04:28:51;;;;;;;;;0.00;0.00;;;;;16.91;100.00;101228.38;5055926;28;45333;-81
2023/12/25 04:31:17;;;;;;;;;0.00;0.00;;;;;16.99;100.00;101225.38;5056306;28;45512;-82
2023/12/25 04:33:43;;;;;;;;;0.00;0.00;;;;;17.01;100.00;101226.16;5038302;28;45350;-82
2023/12/25 04:36:08;;;;;;;;;0.00;0.00;;;;;16.99;100.00;101226.25;5037916;28;45984;-82
2023/12/25 04:38:35;;;;;;;;;0.00;0.00;;;;;16.89;100.00;101234.66;5038336;28;45377;-82
2023/12/25 04:41:00;;;;;;;;;0.00;0.00;;;;;16.98;100.00;101226.34;5038266;28;45274;-82
2023/12/25 04:43:26;;;;;;;;;0.00;0.00;;;;;16.98;100.00;101229.81;5055756;28;46489;-82
2023/12/25 04:45:51;;;;;;;;;0.00;0.00;;;;;17.04;100.00;101233.91;5055548;28;53234;-82
2023/12/25 04:48:16;;;;;;;;;0.00;0.00;;;;;17.01;100.00;101234.06;5055103;28;67843;-82
2023/12/25 04:50:43;;;;;;;;;0.00;0.00;;;;;17.00;100.00;101243.72;5056093;28;45444;-83
2023/12/25 04:53:08;;;;;;;;;0.00;0.00;;;;;17.06;100.00;101234.69;5037987;28;46415;-82
2023/12/25 04:55:34;;;;;;;;;0.00;0.00;;;;;17.08;100.00;101226.75;5053456;28;74194;-83
2023/12/25 04:57:59;;;;;;;;;0.00;0.00;;;;;17.08;100.00;101235.47;5054586;28;67983;-83
2023/12/25 05:00:24;;;;;;;;;0.00;0.00;;;;;17.13;100.00;101230.00;5054963;28;66956;-82
2023/12/25 05:02:50;;;;;;;;;0.00;0.00;;;;;17.05;100.00;101235.63;5054945;28;70501;-82
2023/12/25 05:05:15;;;;;;;;;0.00;0.00;;;;;16.99;100.00;101235.91;5036849;28;69324;-82
2023/12/25 05:07:41;;;;;;;;;0.00;0.00;;;;;17.07;100.00;101240.81;5036903;28;69543;-82
2023/12/25 05:10:07;;;;;;;;;0.75;0.00;;;;;16.97;100.00;101245.66;5038022;28;45361;-82
2023/12/25 05:12:32;;;;;;;;;0.00;0.00;;;;;17.06;100.00;101228.59;5037091;28;45424;-83
2023/12/25 05:14:57;;;;;;;;;0.00;0.00;;;;;17.10;100.00;101240.66;5036778;28;71140;-82
2023/12/25 05:17:23;;;;;;;;;0.00;0.00;;;;;17.02;100.00;101236.63;5054943;28;62184;-82
2023/12/25 05:19:48;;;;;;;;;0.00;0.00;;;;;16.96;100.00;101238.72;5037679;28;45428;-81
2023/12/25 05:22:15;;;;;;;;;0.00;0.00;;;;;16.96;100.00;101246.59;5037517;28;46432;-82
2023/12/25 05:24:40;;;;;;;;;0.00;0.00;;;;;16.92;100.00;101237.13;5054792;28;67892;-82
2023/12/25 05:27:05;;;;;;;;;0.00;0.00;;;;;16.96;100.00;101250.06;5054561;28;64348;-82
2023/12/25 05:29:30;;;;;;;;;0.00;0.00;;;;;16.93;100.00;101231.78;5036588;28;70144;-82
2023/12/25 05:31:57;;;;;;;;;0.00;0.00;;;;;16.95;100.00;101239.63;5036314;28;77463;-81
2023/12/25 05:34:22;;;;;;;;;0.00;0.00;;;;;16.93;100.00;101226.53;5037447;28;45542;-82
2023/12/25 05:36:47;;;;;;;;;0.00;0.00;;;;;17.01;100.00;101228.78;5054646;28;68411;-82
2023/12/25 05:39:13;;;;;;;;;0.00;0.00;;;;;16.99;100.00;101228.03;5055440;28;45408;-82
2023/12/25 05:41:38;;;;;;;;;0.00;0.00;;;;;16.93;100.00;101225.69;5036042;28;69399;-82
2023/12/25 05:44:03;;;;;;;;;0.00;0.00;;;;;16.98;100.00;101221.06;5036322;28;69996;-82
2023/12/25 05:46:30;;;;;;;;;0.00;0.00;;;;;16.96;100.00;101226.41;5054480;28;69724;-82
2023/12/25 05:48:55;;;;;;;;;0.00;0.00;;;;;16.99;100.00;101230.66;5037500;28;45540;-82
2023/12/25 05:51:21;;;;;;;;;0.00;0.00;;;;;16.98;100.00;101226.34;5036357;28;75607;-82
2023/12/25 05:53:46;;;;;;;;;0.00;0.00;;;;;16.96;100.00;101222.94;5054087;28;45635;-82
2023/12/25 05:56:11;;;;;;;;;0.00;0.00;;;;;16.90;100.00;101231.97;5053945;28;70390;-82
2023/12/25 05:58:37;;;;;;;;;0.00;0.00;;;;;17.02;100.00;101218.22;5055370;28;45387;-82
2023/12/25 06:01:02;;;;;;;;;0.00;0.00;;;;;16.96;100.00;101218.50;5055235;28;46090;-82
2023/12/25 06:03:28;;;;;;;;;0.00;0.00;;;;;16.95;100.00;101222.06;5055195;28;45403;-82
2023/12/25 06:05:54;;;;;;;;;0.00;0.00;;;;;17.03;100.00;101216.41;5037420;28;45456;-82
2023/12/25 06:08:20;;;;;;;;;0.00;0.00;;;;;17.14;100.00;101234.31;5055354;28;45255;-81
2023/12/25 06:10:46;;;;;;;;;0.00;0.00;;;;;16.98;100.00;101223.72;5022984;28;46043;-82
2023/12/25 06:13:11;;;;;;;;;0.00;0.00;;;;;16.96;100.00;101222.94;5058494;28;45290;-82
2023/12/25 06:15:37;;;;;;;;;0.00;0.00;;;;;16.99;100.00;101226.25;5040036;28;58485;-83
2023/12/25 06:18:02;;;;;;;;;0.00;0.00;;;;;16.91;100.00;101225.75;5039558;28;70117;-82
2023/12/25 06:20:28;;;;;;;;;0.00;0.00;;;;;16.85;100.00;101233.09;5058475;28;45302;-82
2023/12/25 06:22:53;;;;;;;;;0.00;0.00;;;;;16.92;100.00;101232.75;5039707;28;66117;-82
2023/12/25 06:25:18;;;;;;;;;0.00;0.00;;;;;16.94;100.00;101235.31;5039316;28;61035;-82
2023/12/25 06:27:44;;;;;;;;;0.00;0.00;;;;;16.85;100.00;101236.59;5040520;28;45413;-82
2023/12/25 06:30:09;;;;;;;;;0.00;0.00;;;;;16.92;100.00;101231.88;5039351;28;73132;-82
2023/12/25 06:32:34;;;;;;;;;0.00;0.00;;;;;16.87;100.00;101249.66;5040086;28;46578;-82
2023/12/25 06:35:00;;;;;;;;;0.00;0.00;;;;;16.94;100.00;101236.16;5057340;28;69648;-82
2023/12/25 06:37:25;;;;;;;;;0.00;0.00;;;;;16.88;100.00;101244.31;5040169;28;45409;-82
2023/12/25 06:39:50;;;;;;;;;0.00;0.00;;;;;16.95;100.00;101250.97;5057245;28;60391;-82
2023/12/25 06:42:16;;;;;;;;;0.00;0.00;;;;;17.00;100.00;101245.53;5056906;28;71625;-82
2023/12/25 06:44:41;;;;;;;;;0.00;0.00;;;;;17.00;100.00;101235.00;5057012;28;66157;-82
2023/12/25 06:47:06;;;;;;;;;0.00;0.00;;;;;16.99;100.00;101243.81;5040230;28;45362;-82
2023/12/25 06:49:32;;;;;;;;;0.00;0.00;;;;;16.99;100.00;101251.69;5057832;28;45295;-82
2023/12/25 06:51:57;;;;;;;;;0.00;0.00;;;;;16.98;100.00;101252.63;5039839;28;45318;-82
2023/12/25 06:54:23;;;;;;;;;0.00;0.00;;;;;16.97;100.00;101248.28;5039747;28;45425;-83
2023/12/25 06:56:48;;;;;;;;;0.00;0.00;;;;;16.90;100.00;101254.75;5040061;28;45331;-83
2023/12/25 06:59:14;;;;;;;;;0.00;0.00;;;;;16.93;100.00;101258.09;5056781;28;73419;-80
2023/12/25 07:01:39;;;;;;;;;0.00;0.00;;;;;16.89;100.00;101242.56;5038968;28;69710;-83
2023/12/25 07:04:04;;;;;;;;;0.00;0.00;;;;;16.94;100.00;101257.19;5039479;28;49516;-82
2023/12/25 07:06:30;;;;;;;;;0.00;0.00;;;;;16.95;100.00;101250.13;5039941;28;45283;-82
2023/12/25 07:08:55;;;;;;;;;0.00;0.00;;;;;16.97;100.00;101253.53;5039270;28;48024;-82
2023/12/25 07:11:21;;;;;;;;;0.00;0.00;;;;;16.95;100.00;101260.66;5022839;28;45503;-82
2023/12/25 07:13:46;;;;;;;;;0.00;0.00;;;;;16.87;100.00;101271.53;5039938;28;45512;-82
2023/12/25 07:16:22;;;;;;;;;0.00;0.00;;;;;17.06;100.00;101265.41;5057498;28;45495;-82
2023/12/25 07:18:49;;;;;;;;;0.00;0.00;;;;;17.02;100.00;101269.97;5057559;28;45550;-83
2023/12/25 07:21:15;;;;;;;;;0.00;0.00;;;;;16.91;100.00;101272.25;5056308;28;45302;-82
2023/12/25 07:23:40;;;;;;;;;0.00;0.00;;;;;16.96;100.00;101271.09;5039330;28;45302;-82
2023/12/25 07:26:05;;;;;;;;;0.00;0.00;;;;;16.99;100.00;101280.63;5057601;28;45242;-83
2023/12/25 07:28:31;;;;;;;;;0.00;0.00;;;;;16.99;100.00;101281.50;5039207;28;47398;-83
2023/12/25 07:30:57;;;;;;;;;0.00;0.00;;;;;16.93;100.00;101288.81;5039412;28;45510;-83
2023/12/25 07:33:22;;;;;;;;;0.00;0.00;;;;;17.00;100.00;101288.44;5057546;28;45290;-83
2023/12/25 07:35:48;;;;;;;;;0.00;0.00;;;;;16.98;100.00;101282.41;5038431;28;62859;-84
2023/12/25 07:38:13;;;;;;;;;0.00;0.00;;;;;16.94;100.00;101298.41;5022090;28;48112;-83
2023/12/25 07:40:38;;;;;;;;;0.00;0.00;;;;;16.99;100.00;101293.75;5039084;28;45836;-82
2023/12/25 07:43:07;;;;;;;;;0.00;0.00;;;;;17.00;100.00;101291.06;5038177;28;67945;-82
2023/12/25 07:45:32;;;;;;;;;0.00;0.00;;;;;17.00;100.00;101300.75;5056975;28;45337;-83
2023/12/25 07:47:57;;;;;;;;;0.00;0.00;;;;;17.03;100.00;101290.06;5056839;28;46364;-82
2023/12/25 07:50:23;;;;;;;;;0.00;0.00;;;;;16.94;100.00;101298.41;5056069;28;71975;-82
2023/12/25 07:52:48;;;;;;;;;0.00;0.00;;;;;16.88;100.00;101307.41;5022006;28;45443;-82
2023/12/25 07:55:13;;;;;;;;;0.00;0.00;;;;;16.96;100.00;101307.06;5038044;28;70451;-83
2023/12/25 07:57:39;;;;;;;;;0.00;0.00;;;;;16.75;100.00;101312.38;5038356;28;63614;-81
2023/12/25 08:00:07;;;;;;;;;0.00;0.00;;;;;16.96;100.00;101292.16;5056698;28;45385;-82
2023/12/25 08:02:32;;;;;;;;;0.00;0.00;;;;;16.99;100.00;101297.28;5039141;28;45318;-82
2023/12/25 08:04:58;;;;;;;;;0.00;0.00;;;;;16.98;100.00;101298.19;5039043;28;45401;-82
2023/12/25 08:07:23;;;;;;;;;0.00;0.00;;;;;16.99;100.00;101284.13;5038305;28;45365;-82
2023/12/25 08:09:48;;;;;;;;;0.00;0.00;;;;;17.00;100.00;101277.91;5055778;28;73158;-82
2023/12/25 08:12:14;;;;;;;;;0.00;0.00;;;;;17.01;100.00;101279.63;5037917;28;61154;-82
2023/12/25 08:14:40;;;;;;;;;0.00;0.00;;;;;17.05;100.00;101285.59;5038625;28;45559;-82
2023/12/25 08:17:05;;;;;;;;;0.00;0.00;;;;;17.03;100.00;101295.31;5038617;28;47293;-82
2023/12/25 08:19:30;;;;;;;;;0.00;0.00;;;;;16.98;100.00;101286.81;5055799;28;69070;-82
2023/12/25 08:21:56;;;;;;;;;0.00;0.00;;;;;17.01;100.00;101297.16;5055287;28;67551;-82
2023/12/25 08:24:21;;;;;;;;;0.00;0.00;;;;;16.92;100.00;101301.09;5056027;28;56334;-82
2023/12/25 08:26:47;;;;;;;;;0.00;0.00;;;;;16.92;100.00;101301.09;5056297;28;46131;-82
2023/12/25 08:29:12;;;;;;;;;0.00;0.00;;;;;16.88;100.00;101294.25;5038303;28;45372;-82
2023/12/25 08:31:39;;;;;;;;;0.00;0.00;;;;;16.93;100.00;101301.94;5038450;28;45290;-82
2023/12/25 08:34:04;;;;;;;;;0.00;0.00;;;;;16.88;100.00;101309.19;5056337;28;45490;-82
2023/12/25 08:36:30;;;;;;;;;0.00;0.00;;;;;17.10;100.00;101295.91;5036938;28;75248;-82
2023/12/25 08:38:55;;;;;;;;;0.00;0.00;;;;;16.68;100.00;101320.59;5055151;28;73016;-80
2023/12/25 08:41:20;;;;;;;;;0.00;0.00;;;;;16.96;100.00;101312.34;5055524;28;56827;-80
2023/12/25 08:43:45;;;;;;;;;0.00;0.00;;;;;16.96;100.00;101307.06;5037766;28;54881;-82
2023/12/25 08:46:11;;;;;;;;;0.00;0.00;;;;;16.99;100.00;101312.19;5020664;28;67315;-82
2023/12/25 08:48:36;;;;;;;;;0.00;0.00;;;;;17.01;100.00;101323.47;5037307;28;67004;-81
2023/12/25 08:51:01;;;;;;;;;0.00;0.00;;;;;17.02;100.00;101326.03;5055498;28;51241;-81
2023/12/25 08:53:27;;;;;;;;;0.00;0.00;;;;;17.05;100.00;101324.19;5054176;28;45619;-81
2023/12/25 08:55:52;;;;;;;;;0.00;0.00;;;;;17.11;100.00;101322.13;5054809;28;72797;-81
2023/12/25 08:58:17;;;;;;;;;0.00;0.00;;;;;17.11;100.00;101322.13;5055865;28;45400;-81
2023/12/25 09:00:43;;;;;;;;;0.00;0.00;;;;;17.12;100.00;101326.44;5054977;28;69121;-81
2023/12/25 09:03:08;;;;;;;;;0.00;0.00;;;;;17.13;100.00;101320.28;5055204;28;65829;-81
2023/12/25 09:05:33;;;;;;;;;0.00;0.00;;;;;17.08;100.00;101331.94;5054525;28;73291;-81
2023/12/25 09:07:59;;;;;;;;;0.00;0.00;;;;;17.07;100.00;101340.75;5037949;28;45276;-81
2023/12/25 09:10:24;;;;;;;;;0.00;0.00;;;;;17.14;100.00;101337.78;5055180;28;69065;-82
2023/12/25 09:12:50;;;;;;;;;0.00;0.00;;;;;17.17;100.00;101344.66;5036866;28;68404;-81
2023/12/25 09:15:16;;;;;;;;;0.00;0.00;;;;;17.24;100.00;101340.81;5055489;28;46490;-81
2023/12/25 09:17:41;;;;;;;;;0.00;0.00;;;;;17.20;100.00;101341.91;5054877;28;73075;-81
2023/12/25 09:20:07;;;;;;;;;0.50;0.50;;;;;17.19;100.00;101333.13;5055553;28;45971;-82
2023/12/25 09:22:32;;;;;;;;;0.00;0.00;;;;;17.16;100.00;101348.19;5055856;28;45461;-82
2023/12/25 09:24:58;;;;;;;;;0.00;0.00;;;;;17.19;100.00;101342.81;5055358;28;50835;-82
2023/12/25 09:27:24;;;;;;;;;0.00;0.00;;;;;17.20;100.00;101347.16;5021000;28;45405;-81
2023/12/25 09:29:49;;;;;;;;;0.00;0.00;;;;;17.22;100.00;101355.84;5055962;28;45426;-82
2023/12/25 09:32:14;;;;;;;;;0.00;0.00;;;;;17.19;100.00;101348.91;5055710;28;45518;-82
2023/12/25 09:34:40;;;;;;;;;0.00;0.00;;;;;17.23;100.00;101352.25;5036118;28;75587;-82
2023/12/25 09:37:05;;;;;;;;;0.00;0.00;;;;;17.22;100.00;101340.03;5055258;28;50175;-81
2023/12/25 09:39:31;;;;;;;;;0.00;0.00;;;;;17.25;100.00;101354.81;5037789;28;45911;-81
2023/12/25 09:41:56;;;;;;;;;0.00;0.00;;;;;17.31;100.00;101359.78;5055225;28;45310;-81
2023/12/25 09:44:22;;;;;;;;;0.00;0.00;;;;;17.27;100.00;101361.72;5037052;28;76314;-81
2023/12/25 09:46:47;;;;;;;;;0.00;0.00;;;;;17.16;100.00;101372.75;5041027;28;45424;-81
2023/12/25 09:49:13;;;;;;;;;0.00;0.00;;;;;17.25;100.00;101360.09;5058669;28;45311;-82
2023/12/25 09:51:39;;;;;;;;;0.00;0.00;;;;;17.20;100.00;101360.31;5041053;28;45636;-81
2023/12/25 09:54:05;;;;;;;;;0.00;0.00;;;;;17.25;100.00;101360.94;5040378;28;56776;-82
2023/12/25 09:56:34;;;;;;;;;0.00;0.00;;;;;17.22;100.00;101367.19;5040757;28;45398;-81
2023/12/25 09:59:00;;;;;;;;;0.00;0.00;;;;;17.28;100.00;101370.47;5059065;28;45367;-81
2023/12/25 10:01:26;;;;;;;;;0.00;0.00;;;;;17.27;100.00;101363.50;5039748;28;70321;-81
2023/12/25 10:03:52;;;;;;;;;0.00;0.00;;;;;17.15;100.00;101370.19;5040327;28;46507;-81
2023/12/25 10:06:19;;;;;;;;;0.00;0.00;;;;;17.25;100.00;101362.72;5023005;28;75222;-81
2023/12/25 10:08:44;;;;;;;;;0.00;0.00;;;;;17.24;100.00;101361.03;5040726;28;45450;-82
2023/12/25 10:11:13;;;;;;;;;0.00;0.00;;;;;17.38;100.00;101353.31;5058724;28;45331;-83
2023/12/25 10:13:40;;;;;;;;;0.00;0.00;;;;;17.27;100.00;101363.50;5041020;28;46225;-82
2023/12/25 10:16:06;;;;;;;;;0.00;0.00;;;;;17.27;100.00;101368.75;5058408;28;45243;-81
2023/12/25 10:18:33;;;;;;;;;0.00;0.00;;;;;17.20;100.00;101358.53;5058308;28;45319;-80
2023/12/25 10:21:00;;;;;;;;;0.00;0.00;;;;;17.43;100.00;101372.38;5058651;28;45200;-81
2023/12/25 10:23:29;;;;;;;;;0.00;0.00;;;;;17.58;100.00;101368.16;5040520;28;45370;-82
2023/12/25 10:25:58;;;;;;;;;0.00;0.00;;;;;17.59;100.00;101372.50;5058473;28;45405;-82
2023/12/25 10:28:28;;;;;;;;;0.00;0.00;;;;;17.64;100.00;101367.84;5058533;28;45375;-81
2023/12/25 10:31:07;;;;;;;;;0.00;0.00;;;;;17.54;100.00;101372.72;5040300;28;45401;-82
2023/12/25 10:33:34;;;;;;;;;0.00;0.00;;;;;17.42;100.00;101368.03;5040144;28;48314;-82
2023/12/25 10:36:07;;;;;;;;;0.00;0.00;;;;;17.40;100.00;101370.75;5040161;28;45399;-82
2023/12/25 10:38:34;;;;;;;;;0.00;0.00;;;;;17.32;100.00;101372.88;5058215;28;45258;-81
2023/12/25 10:41:17;;;;;;;;;0.00;0.00;;;;;17.39;100.00;101363.78;5040203;28;45469;-82
2023/12/25 10:43:45;;;;;;;;;0.00;0.00;;;;;17.22;100.00;101364.56;5057884;28;47270;-82
2023/12/25 10:46:10;;;;;;;;;0.00;0.00;;;;;17.14;100.00;101361.47;5039829;28;45327;-81
2023/12/25 10:48:36;;;;;;;;;0.00;0.00;;;;;17.20;100.00;101358.53;5056866;28;70409;-82
2023/12/25 10:51:02;;;;;;;;;0.00;0.00;;;;;16.99;100.00;101362.13;5022776;28;58823;-81
2023/12/25 10:53:28;;;;;;;;;0.00;0.00;;;;;17.10;100.00;101351.13;5023239;28;47078;-81
2023/12/25 10:55:53;;;;;;;;;0.00;0.00;;;;;17.00;100.00;101346.28;5039682;28;45517;-81
2023/12/25 10:58:19;;;;;;;;;0.00;0.00;;;;;16.87;100.00;101353.06;5039210;28;68610;-80
2023/12/25 11:00:54;;;;;;;;;0.00;0.00;;;;;17.04;100.00;101333.84;5056476;28;70238;-82
2023/12/25 11:03:19;;;;;;;;;0.00;0.00;;;;;17.14;100.00;101336.91;5039941;28;46442;-81
2023/12/25 11:05:45;;;;;;;;;0.00;0.00;;;;;17.10;100.00;101340.63;5038808;28;72885;-82
2023/12/25 11:08:13;;;;;;;;;0.00;0.00;;;;;17.16;100.00;101343.81;5038924;28;63955;-82
2023/12/25 11:10:39;;;;;;;;;0.00;0.00;;;;;17.20;100.00;101337.47;5039917;28;45464;-82